sensor_id;sensor_type;location;lat;lon;timestamp;P1;durP1;ratioP1;P2;durP2;ratioP2
43118;SDS011;28729;49.838;8.650;2023-04-24T00:03:29;3.65;;;1.00;;
43118;SDS011;28729;49.838;8.650;2023-04-24T00:07:35;2.53;;;0.88;;
43118;SDS011;28729;49.838;8.650;2023-04-24T00:11:37;1.95;;;0.75;;
43118;SDS011;28729;49.838;8.650;2023-04-24T00:15:38;1.67;;;0.70;;
43118;SDS011;28729;49.838;8.650;2023-04-24T00:19:40;0.88;;;0.70;;
43118;SDS011;28729;49.838;8.650;2023-04-24T00:23:43;1.27;;;0.80;;
43118;SDS011;28729;49.838;8.650;2023-04-24T00:27:45;3.88;;;0.88;;
43118;SDS011;28729;49.838;8.650;2023-04-24T00:31:46;2.35;;;1.02;;
43118;SDS011;28729;49.838;8.650;2023-04-24T00:35:48;2.80;;;1.17;;
43118;SDS011;28729;49.838;8.650;2023-04-24T00:39:50;2.75;;;1.08;;
43118;SDS011;28729;49.838;8.650;2023-04-24T00:43:52;1.83;;;0.90;;
43118;SDS011;28729;49.838;8.650;2023-04-24T00:47:54;3.55;;;1.38;;
43118;SDS011;28729;49.838;8.650;2023-04-24T00:51:57;2.33;;;1.05;;
43118;SDS011;28729;49.838;8.650;2023-04-24T00:56:01;1.48;;;0.82;;
43118;SDS011;28729;49.838;8.650;2023-04-24T01:00:03;1.45;;;0.80;;
43118;SDS011;28729;49.838;8.650;2023-04-24T01:04:08;2.72;;;0.90;;
43118;SDS011;28729;49.838;8.650;2023-04-24T01:08:11;2.95;;;1.00;;
43118;SDS011;28729;49.838;8.650;2023-04-24T01:12:13;4.07;;;0.93;;
43118;SDS011;28729;49.838;8.650;2023-04-24T01:16:18;2.05;;;1.05;;
43118;SDS011;28729;49.838;8.650;2023-04-24T01:20:22;3.55;;;1.13;;
43118;SDS011;28729;49.838;8.650;2023-04-24T01:24:26;2.33;;;1.08;;
43118;SDS011;28729;49.838;8.650;2023-04-24T01:28:27;2.08;;;1.23;;
43118;SDS011;28729;49.838;8.650;2023-04-24T01:32:29;3.45;;;0.95;;
43118;SDS011;28729;49.838;8.650;2023-04-24T01:36:31;2.17;;;0.98;;
43118;SDS011;28729;49.838;8.650;2023-04-24T01:40:34;3.25;;;0.82;;
43118;SDS011;28729;49.838;8.650;2023-04-24T01:44:37;2.55;;;1.00;;
43118;SDS011;28729;49.838;8.650;2023-04-24T01:48:38;1.50;;;0.90;;
43118;SDS011;28729;49.838;8.650;2023-04-24T01:52:40;3.25;;;1.10;;
43118;SDS011;28729;49.838;8.650;2023-04-24T01:56:43;1.83;;;1.00;;
43118;SDS011;28729;49.838;8.650;2023-04-24T02:00:46;2.20;;;0.73;;
43118;SDS011;28729;49.838;8.650;2023-04-24T02:04:48;2.85;;;0.90;;
43118;SDS011;28729;49.838;8.650;2023-04-24T02:08:50;2.10;;;0.80;;
43118;SDS011;28729;49.838;8.650;2023-04-24T02:12:51;4.53;;;1.30;;
43118;SDS011;28729;49.838;8.650;2023-04-24T02:16:57;1.90;;;0.93;;
43118;SDS011;28729;49.838;8.650;2023-04-24T02:20:59;4.57;;;1.25;;
43118;SDS011;28729;49.838;8.650;2023-04-24T02:25:01;4.15;;;1.23;;
43118;SDS011;28729;49.838;8.650;2023-04-24T02:29:03;3.03;;;1.38;;
43118;SDS011;28729;49.838;8.650;2023-04-24T02:33:05;2.13;;;1.15;;
43118;SDS011;28729;49.838;8.650;2023-04-24T02:37:07;3.85;;;1.27;;
43118;SDS011;28729;49.838;8.650;2023-04-24T02:41:10;5.03;;;1.42;;
43118;SDS011;28729;49.838;8.650;2023-04-24T02:45:12;6.15;;;1.50;;
43118;SDS011;28729;49.838;8.650;2023-04-24T02:49:14;1.87;;;1.10;;
43118;SDS011;28729;49.838;8.650;2023-04-24T02:53:16;2.75;;;1.30;;
43118;SDS011;28729;49.838;8.650;2023-04-24T02:57:18;2.92;;;1.35;;
43118;SDS011;28729;49.838;8.650;2023-04-24T03:01:20;2.33;;;1.60;;
43118;SDS011;28729;49.838;8.650;2023-04-24T03:05:22;4.25;;;1.50;;
43118;SDS011;28729;49.838;8.650;2023-04-24T03:09:23;5.53;;;1.92;;
43118;SDS011;28729;49.838;8.650;2023-04-24T03:13:25;2.60;;;1.50;;
43118;SDS011;28729;49.838;8.650;2023-04-24T03:17:27;4.25;;;1.65;;
43118;SDS011;28729;49.838;8.650;2023-04-24T03:21:29;3.40;;;1.48;;
43118;SDS011;28729;49.838;8.650;2023-04-24T03:25:31;3.47;;;1.42;;
43118;SDS011;28729;49.838;8.650;2023-04-24T03:29:34;7.47;;;1.77;;
43118;SDS011;28729;49.838;8.650;2023-04-24T03:33:37;3.33;;;1.53;;
43118;SDS011;28729;49.838;8.650;2023-04-24T03:37:40;2.63;;;1.15;;
43118;SDS011;28729;49.838;8.650;2023-04-24T03:42:14;4.43;;;1.50;;
43118;SDS011;28729;49.838;8.650;2023-04-24T03:46:24;7.95;;;1.50;;
43118;SDS011;28729;49.838;8.650;2023-04-24T03:50:31;3.28;;;1.52;;
43118;SDS011;28729;49.838;8.650;2023-04-24T03:54:34;5.50;;;1.80;;
43118;SDS011;28729;49.838;8.650;2023-04-24T03:58:36;4.60;;;1.75;;
43118;SDS011;28729;49.838;8.650;2023-04-24T04:02:38;4.22;;;2.10;;
43118;SDS011;28729;49.838;8.650;2023-04-24T04:06:43;5.35;;;1.80;;
43118;SDS011;28729;49.838;8.650;2023-04-24T04:10:46;4.72;;;1.90;;
43118;SDS011;28729;49.838;8.650;2023-04-24T04:14:48;6.38;;;2.05;;
43118;SDS011;28729;49.838;8.650;2023-04-24T04:18:49;3.22;;;1.83;;
43118;SDS011;28729;49.838;8.650;2023-04-24T04:22:51;5.60;;;2.47;;
43118;SDS011;28729;49.838;8.650;2023-04-24T04:27:01;5.03;;;2.65;;
43118;SDS011;28729;49.838;8.650;2023-04-24T04:31:08;5.05;;;2.28;;
43118;SDS011;28729;49.838;8.650;2023-04-24T04:35:12;4.32;;;2.80;;
43118;SDS011;28729;49.838;8.650;2023-04-24T04:39:15;6.38;;;3.30;;
43118;SDS011;28729;49.838;8.650;2023-04-24T04:47:30;4.53;;;2.70;;
43118;SDS011;28729;49.838;8.650;2023-04-24T04:51:35;5.07;;;2.67;;
43118;SDS011;28729;49.838;8.650;2023-04-24T04:55:38;8.25;;;3.28;;
43118;SDS011;28729;49.838;8.650;2023-04-24T04:59:45;7.32;;;3.42;;
43118;SDS011;28729;49.838;8.650;2023-04-24T05:03:56;5.90;;;3.50;;
43118;SDS011;28729;49.838;8.650;2023-04-24T05:08:00;7.25;;;3.55;;
43118;SDS011;28729;49.838;8.650;2023-04-24T05:12:02;6.82;;;2.75;;
43118;SDS011;28729;49.838;8.650;2023-04-24T05:16:09;5.25;;;3.42;;
43118;SDS011;28729;49.838;8.650;2023-04-24T05:20:14;5.80;;;3.60;;
43118;SDS011;28729;49.838;8.650;2023-04-24T05:24:19;5.40;;;3.13;;
43118;SDS011;28729;49.838;8.650;2023-04-24T05:28:39;6.40;;;3.53;;
43118;SDS011;28729;49.838;8.650;2023-04-24T05:32:45;5.50;;;3.40;;
43118;SDS011;28729;49.838;8.650;2023-04-24T05:36:48;6.97;;;3.70;;
43118;SDS011;28729;49.838;8.650;2023-04-24T05:40:50;6.18;;;3.50;;
43118;SDS011;28729;49.838;8.650;2023-04-24T05:44:52;5.78;;;2.90;;
43118;SDS011;28729;49.838;8.650;2023-04-24T05:48:58;5.88;;;3.10;;
43118;SDS011;28729;49.838;8.650;2023-04-24T05:53:00;4.88;;;3.00;;
43118;SDS011;28729;49.838;8.650;2023-04-24T05:57:09;5.60;;;3.60;;
43118;SDS011;28729;49.838;8.650;2023-04-24T06:01:23;5.75;;;4.03;;
43118;SDS011;28729;49.838;8.650;2023-04-24T06:05:40;5.80;;;3.83;;
43118;SDS011;28729;49.838;8.650;2023-04-24T06:09:44;7.70;;;3.45;;
43118;SDS011;28729;49.838;8.650;2023-04-24T06:13:47;4.82;;;3.28;;
43118;SDS011;28729;49.838;8.650;2023-04-24T06:18:10;7.00;;;3.53;;
43118;SDS011;28729;49.838;8.650;2023-04-24T06:22:13;4.78;;;2.88;;
43118;SDS011;28729;49.838;8.650;2023-04-24T06:26:15;5.65;;;3.55;;
43118;SDS011;28729;49.838;8.650;2023-04-24T06:30:19;6.30;;;3.67;;
43118;SDS011;28729;49.838;8.650;2023-04-24T06:34:23;6.10;;;3.28;;
43118;SDS011;28729;49.838;8.650;2023-04-24T06:38:25;7.50;;;4.43;;
43118;SDS011;28729;49.838;8.650;2023-04-24T06:42:28;6.45;;;4.22;;
43118;SDS011;28729;49.838;8.650;2023-04-24T06:46:30;8.67;;;4.23;;
43118;SDS011;28729;49.838;8.650;2023-04-24T06:50:32;7.68;;;4.57;;
43118;SDS011;28729;49.838;8.650;2023-04-24T06:54:35;10.25;;;5.20;;
43118;SDS011;28729;49.838;8.650;2023-04-24T06:58:37;9.23;;;5.03;;
43118;SDS011;28729;49.838;8.650;2023-04-24T07:02:40;12.88;;;5.28;;
43118;SDS011;28729;49.838;8.650;2023-04-24T07:06:45;6.50;;;4.13;;
43118;SDS011;28729;49.838;8.650;2023-04-24T07:10:51;8.63;;;4.85;;
43118;SDS011;28729;49.838;8.650;2023-04-24T07:14:53;8.68;;;4.75;;
43118;SDS011;28729;49.838;8.650;2023-04-24T07:18:55;9.20;;;5.20;;
43118;SDS011;28729;49.838;8.650;2023-04-24T07:22:59;7.82;;;4.70;;
43118;SDS011;28729;49.838;8.650;2023-04-24T07:27:04;7.30;;;4.45;;
43118;SDS011;28729;49.838;8.650;2023-04-24T07:31:10;12.18;;;5.03;;
43118;SDS011;28729;49.838;8.650;2023-04-24T07:35:12;8.43;;;4.72;;
43118;SDS011;28729;49.838;8.650;2023-04-24T07:39:16;8.82;;;4.65;;
43118;SDS011;28729;49.838;8.650;2023-04-24T07:48:31;6.68;;;3.90;;
43118;SDS011;28729;49.838;8.650;2023-04-24T07:52:34;7.85;;;3.97;;
43118;SDS011;28729;49.838;8.650;2023-04-24T07:56:36;7.00;;;3.92;;
43118;SDS011;28729;49.838;8.650;2023-04-24T08:00:41;7.00;;;4.03;;
43118;SDS011;28729;49.838;8.650;2023-04-24T08:04:42;4.72;;;2.50;;
43118;SDS011;28729;49.838;8.650;2023-04-24T08:08:45;3.03;;;1.63;;
43118;SDS011;28729;49.838;8.650;2023-04-24T08:12:49;5.82;;;1.63;;
43118;SDS011;28729;49.838;8.650;2023-04-24T08:16:53;3.22;;;1.80;;
43118;SDS011;28729;49.838;8.650;2023-04-24T08:20:59;3.58;;;1.92;;
43118;SDS011;28729;49.838;8.650;2023-04-24T08:25:02;3.53;;;2.10;;
43118;SDS011;28729;49.838;8.650;2023-04-24T08:29:06;7.07;;;2.30;;
43118;SDS011;28729;49.838;8.650;2023-04-24T08:33:08;3.57;;;2.17;;
43118;SDS011;28729;49.838;8.650;2023-04-24T08:37:11;3.53;;;1.80;;
43118;SDS011;28729;49.838;8.650;2023-04-24T08:41:13;3.55;;;1.90;;
43118;SDS011;28729;49.838;8.650;2023-04-24T08:45:18;4.40;;;2.20;;
43118;SDS011;28729;49.838;8.650;2023-04-24T08:49:21;4.40;;;2.35;;
43118;SDS011;28729;49.838;8.650;2023-04-24T08:53:25;3.55;;;2.38;;
43118;SDS011;28729;49.838;8.650;2023-04-24T08:57:31;4.18;;;2.10;;
43118;SDS011;28729;49.838;8.650;2023-04-24T09:01:34;4.07;;;2.28;;
43118;SDS011;28729;49.838;8.650;2023-04-24T09:05:37;3.78;;;2.28;;
43118;SDS011;28729;49.838;8.650;2023-04-24T09:09:39;5.90;;;2.23;;
43118;SDS011;28729;49.838;8.650;2023-04-24T09:13:43;3.45;;;2.08;;
43118;SDS011;28729;49.838;8.650;2023-04-24T09:17:47;4.72;;;2.20;;
43118;SDS011;28729;49.838;8.650;2023-04-24T09:21:50;5.80;;;2.45;;
43118;SDS011;28729;49.838;8.650;2023-04-24T09:25:55;4.85;;;2.78;;
43118;SDS011;28729;49.838;8.650;2023-04-24T09:30:00;6.30;;;2.55;;
43118;SDS011;28729;49.838;8.650;2023-04-24T09:34:04;5.80;;;2.92;;
43118;SDS011;28729;49.838;8.650;2023-04-24T09:38:10;4.20;;;2.38;;
43118;SDS011;28729;49.838;8.650;2023-04-24T09:42:12;4.43;;;2.60;;
43118;SDS011;28729;49.838;8.650;2023-04-24T09:46:15;4.72;;;2.47;;
43118;SDS011;28729;49.838;8.650;2023-04-24T09:50:20;6.45;;;2.63;;
43118;SDS011;28729;49.838;8.650;2023-04-24T09:54:23;5.60;;;2.70;;
43118;SDS011;28729;49.838;8.650;2023-04-24T09:58:28;4.68;;;2.88;;
43118;SDS011;28729;49.838;8.650;2023-04-24T10:02:32;4.68;;;2.63;;
43118;SDS011;28729;49.838;8.650;2023-04-24T10:06:37;5.43;;;2.28;;
43118;SDS011;28729;49.838;8.650;2023-04-24T10:10:42;6.72;;;2.83;;
43118;SDS011;28729;49.838;8.650;2023-04-24T10:14:48;4.15;;;2.75;;
43118;SDS011;28729;49.838;8.650;2023-04-24T10:18:51;3.58;;;2.63;;
43118;SDS011;28729;49.838;8.650;2023-04-24T10:22:53;4.22;;;2.30;;
43118;SDS011;28729;49.838;8.650;2023-04-24T10:27:04;4.20;;;2.50;;
43118;SDS011;28729;49.838;8.650;2023-04-24T10:31:07;3.47;;;2.03;;
43118;SDS011;28729;49.838;8.650;2023-04-24T10:35:13;3.25;;;2.10;;
43118;SDS011;28729;49.838;8.650;2023-04-24T10:39:20;4.78;;;2.50;;
43118;SDS011;28729;49.838;8.650;2023-04-24T10:43:28;4.07;;;1.98;;
43118;SDS011;28729;49.838;8.650;2023-04-24T10:47:30;5.03;;;2.22;;
43118;SDS011;28729;49.838;8.650;2023-04-24T10:51:51;6.50;;;2.45;;
43118;SDS011;28729;49.838;8.650;2023-04-24T11:04:28;5.63;;;2.58;;
43118;SDS011;28729;49.838;8.650;2023-04-24T11:08:42;3.90;;;1.95;;
43118;SDS011;28729;49.838;8.650;2023-04-24T11:12:50;4.53;;;2.20;;
43118;SDS011;28729;49.838;8.650;2023-04-24T11:16:53;4.00;;;2.33;;
43118;SDS011;28729;49.838;8.650;2023-04-24T11:20:59;4.75;;;2.13;;
43118;SDS011;28729;49.838;8.650;2023-04-24T11:25:01;3.53;;;2.30;;
43118;SDS011;28729;49.838;8.650;2023-04-24T11:29:08;7.93;;;2.40;;
43118;SDS011;28729;49.838;8.650;2023-04-24T11:33:12;5.40;;;2.75;;
43118;SDS011;28729;49.838;8.650;2023-04-24T11:37:26;6.05;;;2.30;;
43118;SDS011;28729;49.838;8.650;2023-04-24T11:41:32;5.93;;;3.25;;
43118;SDS011;28729;49.838;8.650;2023-04-24T11:45:34;6.35;;;3.13;;
43118;SDS011;28729;49.838;8.650;2023-04-24T11:49:37;4.88;;;2.72;;
43118;SDS011;28729;49.838;8.650;2023-04-24T11:53:39;3.88;;;2.55;;
43118;SDS011;28729;49.838;8.650;2023-04-24T11:57:48;4.75;;;2.78;;
43118;SDS011;28729;49.838;8.650;2023-04-24T12:01:51;7.30;;;3.05;;
43118;SDS011;28729;49.838;8.650;2023-04-24T12:06:04;6.30;;;3.27;;
43118;SDS011;28729;49.838;8.650;2023-04-24T12:10:07;7.75;;;3.40;;
43118;SDS011;28729;49.838;8.650;2023-04-24T12:18:12;4.00;;;1.70;;
43118;SDS011;28729;49.838;8.650;2023-04-24T12:22:18;2.45;;;1.77;;
43118;SDS011;28729;49.838;8.650;2023-04-24T12:26:21;3.47;;;1.98;;
43118;SDS011;28729;49.838;8.650;2023-04-24T12:34:35;4.75;;;2.42;;
43118;SDS011;28729;49.838;8.650;2023-04-24T12:38:37;5.03;;;2.83;;
43118;SDS011;28729;49.838;8.650;2023-04-24T12:42:46;5.07;;;2.78;;
43118;SDS011;28729;49.838;8.650;2023-04-24T12:46:55;3.65;;;2.40;;
43118;SDS011;28729;49.838;8.650;2023-04-24T12:50:58;4.03;;;2.35;;
43118;SDS011;28729;49.838;8.650;2023-04-24T12:55:06;7.00;;;2.47;;
43118;SDS011;28729;49.838;8.650;2023-04-24T12:59:11;4.22;;;2.60;;
43118;SDS011;28729;49.838;8.650;2023-04-24T13:03:15;7.22;;;3.25;;
43118;SDS011;28729;49.838;8.650;2023-04-24T13:07:19;4.13;;;2.58;;
43118;SDS011;28729;49.838;8.650;2023-04-24T13:11:21;4.97;;;2.83;;
43118;SDS011;28729;49.838;8.650;2023-04-24T13:15:23;6.63;;;3.37;;
43118;SDS011;28729;49.838;8.650;2023-04-24T13:19:25;10.20;;;2.50;;
43118;SDS011;28729;49.838;8.650;2023-04-24T13:23:28;3.85;;;2.35;;
43118;SDS011;28729;49.838;8.650;2023-04-24T13:27:30;4.73;;;2.37;;
43118;SDS011;28729;49.838;8.650;2023-04-24T13:31:33;4.20;;;2.28;;
43118;SDS011;28729;49.838;8.650;2023-04-24T13:35:36;4.47;;;2.30;;
43118;SDS011;28729;49.838;8.650;2023-04-24T13:39:38;5.47;;;2.10;;
43118;SDS011;28729;49.838;8.650;2023-04-24T13:43:41;5.68;;;2.60;;
43118;SDS011;28729;49.838;8.650;2023-04-24T13:47:45;6.50;;;3.35;;
43118;SDS011;28729;49.838;8.650;2023-04-24T13:51:47;7.35;;;2.70;;
43118;SDS011;28729;49.838;8.650;2023-04-24T13:55:52;5.97;;;2.65;;
43118;SDS011;28729;49.838;8.650;2023-04-24T13:59:55;4.63;;;2.42;;
43118;SDS011;28729;49.838;8.650;2023-04-24T14:04:07;4.72;;;2.42;;
43118;SDS011;28729;49.838;8.650;2023-04-24T14:08:13;5.20;;;2.75;;
43118;SDS011;28729;49.838;8.650;2023-04-24T14:12:14;5.55;;;2.67;;
43118;SDS011;28729;49.838;8.650;2023-04-24T14:16:19;4.30;;;2.83;;
43118;SDS011;28729;49.838;8.650;2023-04-24T14:20:21;6.20;;;2.72;;
43118;SDS011;28729;49.838;8.650;2023-04-24T14:24:25;6.93;;;2.88;;
43118;SDS011;28729;49.838;8.650;2023-04-24T14:28:27;3.38;;;2.42;;
43118;SDS011;28729;49.838;8.650;2023-04-24T14:32:29;5.68;;;2.63;;
43118;SDS011;28729;49.838;8.650;2023-04-24T14:36:31;4.50;;;2.37;;
43118;SDS011;28729;49.838;8.650;2023-04-24T14:40:33;6.83;;;2.77;;
43118;SDS011;28729;49.838;8.650;2023-04-24T14:44:38;4.18;;;2.67;;
43118;SDS011;28729;49.838;8.650;2023-04-24T14:48:42;5.63;;;2.58;;
43118;SDS011;28729;49.838;8.650;2023-04-24T14:52:44;5.43;;;2.40;;
43118;SDS011;28729;49.838;8.650;2023-04-24T14:56:50;5.63;;;3.00;;
43118;SDS011;28729;49.838;8.650;2023-04-24T15:00:52;7.77;;;2.80;;
43118;SDS011;28729;49.838;8.650;2023-04-24T15:04:57;3.63;;;2.40;;
43118;SDS011;28729;49.838;8.650;2023-04-24T15:09:01;4.35;;;2.05;;
43118;SDS011;28729;49.838;8.650;2023-04-24T15:13:03;4.37;;;2.20;;
43118;SDS011;28729;49.838;8.650;2023-04-24T15:17:05;4.40;;;2.63;;
43118;SDS011;28729;49.838;8.650;2023-04-24T15:21:07;4.93;;;2.28;;
43118;SDS011;28729;49.838;8.650;2023-04-24T15:25:09;6.18;;;2.28;;
43118;SDS011;28729;49.838;8.650;2023-04-24T15:29:12;3.28;;;2.10;;
43118;SDS011;28729;49.838;8.650;2023-04-24T15:33:15;3.72;;;2.40;;
43118;SDS011;28729;49.838;8.650;2023-04-24T15:37:19;4.15;;;2.63;;
43118;SDS011;28729;49.838;8.650;2023-04-24T15:41:22;7.53;;;2.70;;
43118;SDS011;28729;49.838;8.650;2023-04-24T15:45:26;3.58;;;1.92;;
43118;SDS011;28729;49.838;8.650;2023-04-24T15:49:28;4.90;;;2.47;;
43118;SDS011;28729;49.838;8.650;2023-04-24T15:53:33;7.57;;;2.65;;
43118;SDS011;28729;49.838;8.650;2023-04-24T15:57:34;3.70;;;1.45;;
43118;SDS011;28729;49.838;8.650;2023-04-24T16:01:36;3.80;;;2.25;;
43118;SDS011;28729;49.838;8.650;2023-04-24T16:05:38;5.70;;;3.00;;
43118;SDS011;28729;49.838;8.650;2023-04-24T16:09:41;6.93;;;2.97;;
43118;SDS011;28729;49.838;8.650;2023-04-24T16:13:47;4.68;;;2.88;;
43118;SDS011;28729;49.838;8.650;2023-04-24T16:17:49;5.03;;;2.58;;
43118;SDS011;28729;49.838;8.650;2023-04-24T16:21:52;5.40;;;3.00;;
43118;SDS011;28729;49.838;8.650;2023-04-24T16:25:56;6.30;;;3.30;;
43118;SDS011;28729;49.838;8.650;2023-04-24T16:29:59;5.30;;;2.47;;
43118;SDS011;28729;49.838;8.650;2023-04-24T16:34:01;5.72;;;3.08;;
43118;SDS011;28729;49.838;8.650;2023-04-24T16:38:02;7.55;;;3.05;;
43118;SDS011;28729;49.838;8.650;2023-04-24T16:42:07;5.85;;;3.55;;
43118;SDS011;28729;49.838;8.650;2023-04-24T16:46:10;6.18;;;3.03;;
43118;SDS011;28729;49.838;8.650;2023-04-24T16:50:12;6.18;;;3.25;;
43118;SDS011;28729;49.838;8.650;2023-04-24T16:54:14;7.47;;;3.50;;
43118;SDS011;28729;49.838;8.650;2023-04-24T16:58:16;5.50;;;3.30;;
43118;SDS011;28729;49.838;8.650;2023-04-24T17:02:18;4.82;;;3.17;;
43118;SDS011;28729;49.838;8.650;2023-04-24T17:06:21;4.43;;;2.97;;
43118;SDS011;28729;49.838;8.650;2023-04-24T17:10:24;5.45;;;3.22;;
43118;SDS011;28729;49.838;8.650;2023-04-24T17:14:29;8.13;;;3.38;;
43118;SDS011;28729;49.838;8.650;2023-04-24T17:18:33;5.50;;;3.78;;
43118;SDS011;28729;49.838;8.650;2023-04-24T17:22:35;6.57;;;3.47;;
43118;SDS011;28729;49.838;8.650;2023-04-24T17:26:37;7.45;;;3.65;;
43118;SDS011;28729;49.838;8.650;2023-04-24T17:30:40;6.50;;;3.33;;
43118;SDS011;28729;49.838;8.650;2023-04-24T17:34:41;6.20;;;3.30;;
43118;SDS011;28729;49.838;8.650;2023-04-24T17:38:43;7.45;;;3.78;;
43118;SDS011;28729;49.838;8.650;2023-04-24T17:42:45;7.20;;;4.47;;
43118;SDS011;28729;49.838;8.650;2023-04-24T17:46:47;6.80;;;4.25;;
43118;SDS011;28729;49.838;8.650;2023-04-24T17:50:51;8.63;;;4.88;;
43118;SDS011;28729;49.838;8.650;2023-04-24T17:58:55;10.32;;;5.15;;
43118;SDS011;28729;49.838;8.650;2023-04-24T18:03:00;9.77;;;6.25;;
43118;SDS011;28729;49.838;8.650;2023-04-24T18:07:04;15.07;;;5.68;;
43118;SDS011;28729;49.838;8.650;2023-04-24T18:11:07;9.15;;;5.40;;
43118;SDS011;28729;49.838;8.650;2023-04-24T18:15:09;13.77;;;5.90;;
43118;SDS011;28729;49.838;8.650;2023-04-24T18:19:15;12.35;;;5.55;;
43118;SDS011;28729;49.838;8.650;2023-04-24T18:23:17;10.85;;;5.40;;
43118;SDS011;28729;49.838;8.650;2023-04-24T18:27:23;8.90;;;5.15;;
43118;SDS011;28729;49.838;8.650;2023-04-24T18:31:26;12.38;;;5.30;;
43118;SDS011;28729;49.838;8.650;2023-04-24T18:35:30;8.75;;;5.72;;
43118;SDS011;28729;49.838;8.650;2023-04-24T18:39:31;10.68;;;5.75;;
43118;SDS011;28729;49.838;8.650;2023-04-24T18:43:35;14.02;;;6.30;;
43118;SDS011;28729;49.838;8.650;2023-04-24T18:47:38;11.55;;;6.53;;
43118;SDS011;28729;49.838;8.650;2023-04-24T18:55:54;10.07;;;5.68;;
43118;SDS011;28729;49.838;8.650;2023-04-24T18:59:56;11.05;;;6.40;;
43118;SDS011;28729;49.838;8.650;2023-04-24T19:03:58;15.35;;;7.47;;
43118;SDS011;28729;49.838;8.650;2023-04-24T19:08:00;16.40;;;7.65;;
43118;SDS011;28729;49.838;8.650;2023-04-24T19:12:02;15.57;;;7.50;;
43118;SDS011;28729;49.838;8.650;2023-04-24T19:16:04;10.38;;;5.68;;
43118;SDS011;28729;49.838;8.650;2023-04-24T19:20:06;13.25;;;7.53;;
43118;SDS011;28729;49.838;8.650;2023-04-24T19:24:08;10.57;;;6.53;;
43118;SDS011;28729;49.838;8.650;2023-04-24T19:28:12;13.20;;;6.53;;
43118;SDS011;28729;49.838;8.650;2023-04-24T19:32:15;9.98;;;6.47;;
43118;SDS011;28729;49.838;8.650;2023-04-24T19:40:20;10.27;;;6.28;;
43118;SDS011;28729;49.838;8.650;2023-04-24T19:44:22;11.10;;;6.40;;
43118;SDS011;28729;49.838;8.650;2023-04-24T19:48:27;12.75;;;6.82;;
43118;SDS011;28729;49.838;8.650;2023-04-24T19:52:31;13.45;;;6.70;;
43118;SDS011;28729;49.838;8.650;2023-04-24T19:56:33;11.07;;;6.50;;
43118;SDS011;28729;49.838;8.650;2023-04-24T20:00:35;12.20;;;7.25;;
43118;SDS011;28729;49.838;8.650;2023-04-24T20:04:37;13.60;;;7.00;;
43118;SDS011;28729;49.838;8.650;2023-04-24T20:08:39;10.73;;;6.57;;
43118;SDS011;28729;49.838;8.650;2023-04-24T20:12:42;10.98;;;6.07;;
43118;SDS011;28729;49.838;8.650;2023-04-24T20:16:44;9.55;;;6.32;;
43118;SDS011;28729;49.838;8.650;2023-04-24T20:20:46;9.95;;;6.10;;
43118;SDS011;28729;49.838;8.650;2023-04-24T20:24:48;16.55;;;7.80;;
43118;SDS011;28729;49.838;8.650;2023-04-24T20:28:50;18.08;;;7.78;;
43118;SDS011;28729;49.838;8.650;2023-04-24T20:32:53;13.53;;;8.17;;
43118;SDS011;28729;49.838;8.650;2023-04-24T20:36:57;14.95;;;8.15;;
43118;SDS011;28729;49.838;8.650;2023-04-24T20:41:00;13.13;;;7.70;;
43118;SDS011;28729;49.838;8.650;2023-04-24T20:45:03;14.68;;;7.75;;
43118;SDS011;28729;49.838;8.650;2023-04-24T20:49:06;14.25;;;7.93;;
43118;SDS011;28729;49.838;8.650;2023-04-24T20:53:09;16.17;;;8.40;;
43118;SDS011;28729;49.838;8.650;2023-04-24T20:57:11;13.18;;;8.15;;
43118;SDS011;28729;49.838;8.650;2023-04-24T21:01:13;12.57;;;7.55;;
43118;SDS011;28729;49.838;8.650;2023-04-24T21:05:16;12.25;;;7.78;;
43118;SDS011;28729;49.838;8.650;2023-04-24T21:09:18;12.32;;;7.50;;
43118;SDS011;28729;49.838;8.650;2023-04-24T21:13:20;14.57;;;7.43;;
43118;SDS011;28729;49.838;8.650;2023-04-24T21:17:23;13.43;;;7.65;;
43118;SDS011;28729;49.838;8.650;2023-04-24T21:21:25;12.38;;;7.45;;
43118;SDS011;28729;49.838;8.650;2023-04-24T21:25:27;12.50;;;6.93;;
43118;SDS011;28729;49.838;8.650;2023-04-24T21:29:29;14.18;;;7.15;;
43118;SDS011;28729;49.838;8.650;2023-04-24T21:33:33;15.38;;;8.48;;
43118;SDS011;28729;49.838;8.650;2023-04-24T21:37:35;13.73;;;7.10;;
43118;SDS011;28729;49.838;8.650;2023-04-24T21:41:39;13.23;;;7.28;;
43118;SDS011;28729;49.838;8.650;2023-04-24T21:45:41;11.90;;;6.87;;
43118;SDS011;28729;49.838;8.650;2023-04-24T21:49:43;15.07;;;7.90;;
43118;SDS011;28729;49.838;8.650;2023-04-24T21:53:45;11.52;;;6.38;;
43118;SDS011;28729;49.838;8.650;2023-04-24T21:57:47;9.13;;;5.87;;
43118;SDS011;28729;49.838;8.650;2023-04-24T22:01:48;12.27;;;6.07;;
43118;SDS011;28729;49.838;8.650;2023-04-24T22:05:50;13.43;;;6.75;;
43118;SDS011;28729;49.838;8.650;2023-04-24T22:09:52;10.57;;;6.78;;
43118;SDS011;28729;49.838;8.650;2023-04-24T22:13:54;8.57;;;4.28;;
43118;SDS011;28729;49.838;8.650;2023-04-24T22:17:56;9.90;;;6.53;;
43118;SDS011;28729;49.838;8.650;2023-04-24T22:21:58;11.45;;;5.95;;
43118;SDS011;28729;49.838;8.650;2023-04-24T22:26:00;9.90;;;6.35;;
43118;SDS011;28729;49.838;8.650;2023-04-24T22:30:02;11.10;;;6.70;;
43118;SDS011;28729;49.838;8.650;2023-04-24T22:34:06;10.85;;;5.85;;
43118;SDS011;28729;49.838;8.650;2023-04-24T22:38:07;12.60;;;6.53;;
43118;SDS011;28729;49.838;8.650;2023-04-24T22:42:09;11.68;;;6.97;;
43118;SDS011;28729;49.838;8.650;2023-04-24T22:46:11;16.60;;;7.43;;
43118;SDS011;28729;49.838;8.650;2023-04-24T22:50:13;9.27;;;5.30;;
43118;SDS011;28729;49.838;8.650;2023-04-24T22:54:15;10.02;;;5.43;;
43118;SDS011;28729;49.838;8.650;2023-04-24T22:58:17;6.40;;;3.72;;
43118;SDS011;28729;49.838;8.650;2023-04-24T23:02:20;6.70;;;3.70;;
43118;SDS011;28729;49.838;8.650;2023-04-24T23:16:43;7.05;;;3.80;;
43118;SDS011;28729;49.838;8.650;2023-04-24T23:20:46;6.50;;;3.78;;
43118;SDS011;28729;49.838;8.650;2023-04-24T23:24:48;6.95;;;3.50;;
43118;SDS011;28729;49.838;8.650;2023-04-24T23:28:50;6.82;;;3.90;;
43118;SDS011;28729;49.838;8.650;2023-04-24T23:32:52;9.05;;;3.83;;
43118;SDS011;28729;49.838;8.650;2023-04-24T23:36:54;7.72;;;4.25;;
43118;SDS011;28729;49.838;8.650;2023-04-24T23:40:55;8.10;;;4.53;;
43118;SDS011;28729;49.838;8.650;2023-04-24T23:44:57;6.43;;;3.65;;
43118;SDS011;28729;49.838;8.650;2023-04-24T23:48:59;8.43;;;4.68;;
43118;SDS011;28729;49.838;8.650;2023-04-24T23:53:01;8.82;;;4.53;;
43118;SDS011;28729;49.838;8.650;2023-04-24T23:57:03;6.38;;;3.78;;
